Time;durP1;ratioP1;P1;durP2;ratioP2;P2;SDS_P1;SDS_P2;PMS_P1;PMS_P2;Temp;Humidity;BMP_temperature;BMP_pressure;BME280_temperature;BME280_humidity;BME280_pressure;Samples;Min_cycle;Max_cycle;Signal;HPM_P1;HPM_P2
2020/12/23 00:01:09;;;;;;;29.30;10.63;;;8.10;99.90;;;;;;5034504;28;20201;-68
2020/12/23 00:03:38;;;;;;;21.67;9.63;;;8.10;99.90;;;;;;5029767;28;20202;-68
2020/12/23 00:06:05;;;;;;;23.37;9.20;;;8.10;99.90;;;;;;5029138;28;20726;-68
2020/12/23 00:08:33;;;;;;;18.27;9.47;;;8.10;99.90;;;;;;5030304;28;20702;-68
2020/12/23 00:11:00;;;;;;;19.97;8.07;;;8.10;99.90;;;;;;5026425;28;20203;-68
2020/12/23 00:13:26;;;;;;;17.30;9.20;;;8.20;99.90;;;;;;5025274;28;20214;-68
2020/12/23 00:15:54;;;;;;;18.00;8.80;;;8.20;99.90;;;;;;5023098;28;20614;-68
2020/12/23 00:18:21;;;;;;;25.43;9.30;;;8.20;99.90;;;;;;5026270;28;20198;-68
2020/12/23 00:20:47;;;;;;;29.67;10.50;;;8.20;99.90;;;;;;5022831;28;20230;-68
2020/12/23 00:23:14;;;;;;;40.43;12.63;;;8.20;99.90;;;;;;5059995;28;20221;-68
2020/12/23 00:25:41;;;;;;;27.63;11.67;;;8.20;99.90;;;;;;5065422;28;20758;-68
2020/12/23 00:28:07;;;;;;;23.97;10.77;;;8.20;99.90;;;;;;5054568;28;20235;-68
2020/12/23 00:30:34;;;;;;;23.63;11.88;;;8.20;99.90;;;;;;5007656;28;20870;-68
2020/12/23 00:33:02;;;;;;;21.47;10.73;;;8.30;99.90;;;;;;4982118;28;20811;-69
2020/12/23 00:35:29;;;;;;;19.70;10.30;;;8.30;99.90;;;;;;4995213;28;20215;-70
2020/12/23 00:37:55;;;;;;;20.53;10.60;;;8.30;99.90;;;;;;4992902;28;20214;-70
2020/12/23 00:40:22;;;;;;;22.87;11.43;;;8.30;99.90;;;;;;4975097;28;20204;-70
2020/12/23 00:42:49;;;;;;;21.00;11.33;;;8.30;99.90;;;;;;4979490;28;20208;-70
2020/12/23 00:45:15;;;;;;;18.87;10.87;;;8.30;99.90;;;;;;4992450;28;20222;-70
2020/12/23 00:47:42;;;;;;;20.93;10.13;;;8.40;99.90;;;;;;5001516;28;20211;-69
2020/12/23 00:50:09;;;;;;;16.93;9.47;;;8.40;99.90;;;;;;4993118;28;20208;-70
2020/12/23 00:52:36;;;;;;;20.50;10.40;;;8.40;99.90;;;;;;4996515;28;20214;-71
2020/12/23 00:55:02;;;;;;;19.67;10.00;;;8.40;99.90;;;;;;4997028;28;20258;-69
2020/12/23 00:57:35;;;;;;;18.47;9.80;;;8.40;99.90;;;;;;4965600;28;20586;-70
2020/12/23 01:00:01;;;;;;;18.90;9.90;;;8.40;99.90;;;;;;4984652;28;20205;-69
2020/12/23 01:02:28;;;;;;;22.33;9.43;;;8.50;99.90;;;;;;4997705;28;20262;-69
2020/12/23 01:04:54;;;;;;;14.77;8.87;;;8.50;99.90;;;;;;5022751;28;20534;-69
2020/12/23 01:07:22;;;;;;;17.17;8.77;;;8.50;99.90;;;;;;5062061;28;20245;-69
2020/12/23 01:09:48;;;;;;;22.30;9.77;;;8.50;99.90;;;;;;5062197;28;20233;-70
2020/12/23 01:12:15;;;;;;;16.77;8.80;;;8.60;99.90;;;;;;5098873;28;20262;-69
2020/12/23 01:14:42;;;;;;;18.87;9.67;;;8.60;99.90;;;;;;5086116;28;20614;-69
2020/12/23 01:17:08;;;;;;;20.13;10.77;;;8.60;99.90;;;;;;5093048;28;20204;-69
2020/12/23 01:19:35;;;;;;;21.03;10.80;;;8.60;99.90;;;;;;5089655;28;20756;-69
2020/12/23 01:22:01;;;;;;;25.40;10.93;;;8.70;99.90;;;;;;5095797;28;20205;-69
2020/12/23 01:24:29;;;;;;;26.10;11.10;;;8.70;99.90;;;;;;5089506;28;20658;-69
2020/12/23 01:26:55;;;;;;;21.00;10.20;;;8.70;99.90;;;;;;5101910;28;20254;-69
2020/12/23 01:29:22;;;;;;;18.47;9.97;;;8.70;99.90;;;;;;5094798;28;20211;-69
2020/12/23 01:31:48;;;;;;;14.80;7.93;;;8.70;99.90;;;;;;5086662;28;20552;-69
2020/12/23 01:34:15;;;;;;;16.30;9.37;;;8.80;99.90;;;;;;5090770;28;20212;-69
2020/12/23 01:36:41;;;;;;;15.40;9.50;;;8.80;99.90;;;;;;5095609;28;20380;-69
2020/12/23 01:39:08;;;;;;;15.33;9.20;;;8.80;99.90;;;;;;5090242;28;20200;-69
2020/12/23 01:41:35;;;;;;;16.23;8.80;;;8.80;99.90;;;;;;5096631;28;20269;-69
2020/12/23 01:44:02;;;;;;;14.37;7.73;;;8.90;99.90;;;;;;5099483;28;20263;-70
2020/12/23 01:46:32;;;;;;;15.37;7.57;;;8.90;99.90;;;;;;5098306;28;20221;-69
2020/12/23 01:49:03;;;;;;;13.60;7.63;;;8.90;99.90;;;;;;5100210;28;20647;-69
2020/12/23 01:51:29;;;;;;;12.07;7.47;;;8.90;99.90;;;;;;5096048;28;20253;-69
2020/12/23 01:53:57;;;;;;;12.50;7.80;;;9.00;99.90;;;;;;5056206;28;20207;-69
2020/12/23 01:56:23;;;;;;;11.13;7.37;;;9.00;99.90;;;;;;5064880;28;20210;-69
2020/12/23 01:58:51;;;;;;;10.93;7.30;;;9.00;99.90;;;;;;5025899;28;20211;-69
2020/12/23 02:01:20;;;;;;;10.97;7.30;;;9.10;99.90;;;;;;5008470;28;20565;-69
2020/12/23 02:03:48;;;;;;;13.13;8.00;;;9.10;99.90;;;;;;5013430;28;20294;-69
2020/12/23 02:06:15;;;;;;;12.47;7.80;;;9.10;99.90;;;;;;5015166;28;20231;-69
2020/12/23 02:08:42;;;;;;;12.63;7.87;;;9.10;99.90;;;;;;5009182;28;20232;-69
2020/12/23 02:11:10;;;;;;;15.17;8.43;;;9.10;99.90;;;;;;5009529;28;20308;-69
2020/12/23 02:13:38;;;;;;;11.63;7.77;;;9.10;99.90;;;;;;5008674;28;20259;-69
2020/12/23 02:16:06;;;;;;;12.77;8.27;;;9.20;99.90;;;;;;5008432;28;20196;-69
2020/12/23 02:18:33;;;;;;;17.93;9.23;;;9.20;99.90;;;;;;5021465;28;20308;-69
2020/12/23 02:21:00;;;;;;;17.03;9.40;;;9.20;99.90;;;;;;5023309;28;20221;-69
2020/12/23 02:23:28;;;;;;;36.03;11.47;;;9.30;99.90;;;;;;5023701;28;20206;-69
2020/12/23 02:25:55;;;;;;;69.90;19.00;;;9.30;99.90;;;;;;5042356;28;20230;-69
2020/12/23 02:28:22;;;;;;;109.70;24.10;;;9.20;99.90;;;;;;5045017;28;20209;-69
2020/12/23 02:30:48;;;;;;;106.30;27.50;;;9.30;99.90;;;;;;5056202;28;20239;-69
2020/12/23 02:33:15;;;;;;;124.93;30.50;;;9.20;99.90;;;;;;5049110;28;20226;-69
2020/12/23 02:35:42;;;;;;;108.57;29.40;;;9.30;99.90;;;;;;5048769;28;20202;-69
2020/12/23 02:38:09;;;;;;;85.40;25.53;;;9.30;99.90;;;;;;5055150;28;20212;-69
2020/12/23 02:40:36;;;;;;;73.00;22.63;;;9.30;99.90;;;;;;5070483;28;20215;-69
2020/12/23 02:43:03;;;;;;;66.30;20.77;;;9.30;99.90;;;;;;5070434;28;20674;-68
2020/12/23 02:45:30;;;;;;;43.57;15.80;;;9.30;99.90;;;;;;5048159;28;20210;-68
2020/12/23 02:47:56;;;;;;;37.67;14.07;;;9.30;99.90;;;;;;5050172;28;20217;-69
2020/12/23 02:50:23;;;;;;;28.77;12.27;;;9.30;99.90;;;;;;5048641;28;20215;-69
2020/12/23 02:52:49;;;;;;;23.10;10.43;;;9.30;99.90;;;;;;5049698;28;20304;-70
2020/12/23 02:55:16;;;;;;;18.23;9.73;;;9.30;99.90;;;;;;5053403;28;20201;-69
2020/12/23 02:57:43;;;;;;;17.27;8.87;;;9.20;99.90;;;;;;5067800;28;20257;-70
2020/12/23 03:00:10;;;;;;;18.23;8.90;;;9.20;99.90;;;;;;5032070;28;20257;-69
2020/12/23 03:02:36;;;;;;;14.63;8.47;;;9.20;99.90;;;;;;5032857;28;20203;-69
2020/12/23 03:05:04;;;;;;;17.93;8.60;;;9.20;99.90;;;;;;5036658;28;20215;-69
2020/12/23 03:07:30;;;;;;;16.30;8.00;;;9.20;99.90;;;;;;5035338;28;20226;-69
2020/12/23 03:09:57;;;;;;;17.20;8.87;;;9.20;99.90;;;;;;5036214;28;20233;-69
2020/12/23 03:12:24;;;;;;;13.20;8.47;;;9.20;99.90;;;;;;4977042;28;20245;-70
2020/12/23 03:14:52;;;;;;;12.23;7.97;;;9.20;99.90;;;;;;4979379;28;20292;-69
2020/12/23 03:17:18;;;;;;;12.93;7.47;;;9.20;99.90;;;;;;5008047;28;20207;-69
2020/12/23 03:19:45;;;;;;;15.97;8.23;;;9.20;99.90;;;;;;5013980;28;20212;-69
2020/12/23 03:22:11;;;;;;;15.50;8.10;;;9.20;99.90;;;;;;5019068;28;20221;-70
2020/12/23 03:24:38;;;;;;;13.47;7.67;;;9.10;99.90;;;;;;5002972;28;20661;-70
2020/12/23 03:27:04;;;;;;;15.30;8.47;;;9.20;99.90;;;;;;4998271;28;20234;-70
2020/12/23 03:29:31;;;;;;;16.97;8.97;;;9.10;99.90;;;;;;4996616;28;20278;-70
2020/12/23 03:31:58;;;;;;;15.63;8.77;;;9.10;99.90;;;;;;5019113;28;20625;-70
2020/12/23 03:34:25;;;;;;;18.73;9.37;;;9.10;99.90;;;;;;4988369;28;20206;-69
2020/12/23 03:36:52;;;;;;;19.13;8.80;;;9.00;99.90;;;;;;4989830;28;20208;-69
2020/12/23 03:39:18;;;;;;;20.83;9.90;;;9.10;99.90;;;;;;4990654;28;20697;-69
2020/12/23 03:41:45;;;;;;;20.90;9.20;;;9.00;99.90;;;;;;4991835;28;20244;-69
2020/12/23 03:44:11;;;;;;;22.17;10.43;;;9.10;99.90;;;;;;5002166;28;20670;-69
2020/12/23 03:46:38;;;;;;;26.93;11.17;;;9.10;99.90;;;;;;4987137;28;20323;-68
2020/12/23 03:49:05;;;;;;;21.87;11.37;;;9.00;99.90;;;;;;4990863;28;20233;-69
2020/12/23 03:51:32;;;;;;;22.97;11.27;;;9.00;99.90;;;;;;4991043;28;21165;-69
2020/12/23 03:53:58;;;;;;;23.27;10.80;;;9.00;99.90;;;;;;4953172;28;20260;-69
2020/12/23 03:56:25;;;;;;;19.60;10.13;;;8.90;99.90;;;;;;4971317;28;20223;-69
2020/12/23 03:58:52;;;;;;;26.20;12.00;;;8.90;99.90;;;;;;4968552;28;20394;-69
2020/12/23 04:01:18;;;;;;;23.67;11.50;;;8.90;99.90;;;;;;4967880;28;20646;-69
2020/12/23 04:03:45;;;;;;;32.33;13.43;;;8.90;99.90;;;;;;4969413;28;20582;-69
2020/12/23 04:06:12;;;;;;;26.17;12.10;;;8.80;99.90;;;;;;4960596;28;20304;-69
2020/12/23 04:08:39;;;;;;;25.20;11.63;;;8.80;99.90;;;;;;4953059;28;20235;-69
2020/12/23 04:11:05;;;;;;;24.13;10.37;;;8.80;99.90;;;;;;4958030;28;20295;-69
2020/12/23 04:13:32;;;;;;;18.53;10.10;;;8.80;99.90;;;;;;4955311;28;20625;-69
2020/12/23 04:15:58;;;;;;;19.37;9.80;;;8.80;99.90;;;;;;4956803;28;20249;-69
2020/12/23 04:18:25;;;;;;;18.53;9.10;;;8.80;99.90;;;;;;4972812;28;20211;-70
2020/12/23 04:20:52;;;;;;;18.90;9.20;;;8.80;99.90;;;;;;4985822;28;20216;-70
2020/12/23 04:23:19;;;;;;;17.03;9.27;;;8.90;99.90;;;;;;5029506;28;20212;-69
2020/12/23 04:25:45;;;;;;;16.87;9.33;;;8.90;99.90;;;;;;5086510;28;20265;-69
2020/12/23 04:28:12;;;;;;;20.70;10.30;;;8.90;99.90;;;;;;5089973;28;20202;-69
2020/12/23 04:30:39;;;;;;;20.00;9.97;;;8.90;99.90;;;;;;5099865;28;20202;-69
2020/12/23 04:33:05;;;;;;;17.57;10.17;;;8.90;99.90;;;;;;5102072;28;20199;-69
2020/12/23 04:35:32;;;;;;;20.90;11.83;;;8.90;99.90;;;;;;5109788;28;20190;-69
2020/12/23 04:37:58;;;;;;;22.93;12.17;;;8.90;99.90;;;;;;5110607;28;20195;-69
2020/12/23 04:40:26;;;;;;;21.67;12.50;;;8.90;99.90;;;;;;5112919;28;20222;-70
2020/12/23 04:42:53;;;;;;;25.10;13.10;;;8.90;99.90;;;;;;5110651;28;20241;-69
2020/12/23 04:45:20;;;;;;;20.73;11.13;;;8.90;99.90;;;;;;5109251;28;20242;-69
2020/12/23 04:47:49;;;;;;;19.87;10.83;;;8.90;99.90;;;;;;5111825;28;20264;-70
2020/12/23 04:50:21;;;;;;;19.07;11.23;;;8.90;99.90;;;;;;5093484;28;20238;-70
2020/12/23 04:52:48;;;;;;;27.43;15.17;;;8.90;99.90;;;;;;5094383;28;20725;-70
2020/12/23 04:55:15;;;;;;;29.60;17.07;;;8.90;99.90;;;;;;5053291;28;20241;-70
2020/12/23 04:57:44;;;;;;;47.20;25.03;;;9.00;99.90;;;;;;5050774;28;20580;-70
2020/12/23 05:00:11;;;;;;;48.77;24.30;;;9.00;99.90;;;;;;5048608;28;20210;-69
2020/12/23 05:02:37;;;;;;;56.00;26.87;;;9.00;99.90;;;;;;5054453;28;20230;-69
2020/12/23 05:05:04;;;;;;;68.90;28.93;;;9.00;99.90;;;;;;5057693;28;20207;-70
2020/12/23 05:07:30;;;;;;;78.43;30.73;;;9.00;99.90;;;;;;5054726;28;20235;-69
2020/12/23 05:09:57;;;;;;;114.87;42.50;;;9.00;99.90;;;;;;5049769;28;20233;-69
2020/12/23 05:12:23;;;;;;;93.83;39.60;;;9.00;99.90;;;;;;5050996;28;20570;-69
2020/12/23 05:14:51;;;;;;;77.70;34.77;;;8.90;99.90;;;;;;5045152;28;20658;-69
2020/12/23 05:17:18;;;;;;;44.30;23.17;;;8.90;99.90;;;;;;5050075;28;20294;-69
2020/12/23 05:19:46;;;;;;;36.60;19.10;;;8.90;99.90;;;;;;5045289;28;20704;-69
2020/12/23 05:22:16;;;;;;;29.50;16.00;;;8.90;99.90;;;;;;5050370;28;20216;-69
2020/12/23 05:24:43;;;;;;;28.23;14.17;;;8.90;99.90;;;;;;5045134;28;20203;-68
2020/12/23 05:27:10;;;;;;;25.23;12.33;;;8.90;99.90;;;;;;5064368;28;20231;-69
2020/12/23 05:29:37;;;;;;;36.13;14.07;;;8.90;99.90;;;;;;5069292;28;20235;-69
2020/12/23 05:32:05;;;;;;;32.70;13.17;;;8.90;99.90;;;;;;5068863;28;20199;-68
2020/12/23 05:34:35;;;;;;;47.37;14.33;;;9.00;99.90;;;;;;5062264;28;20204;-70
2020/12/23 05:37:03;;;;;;;70.27;16.50;;;9.00;99.90;;;;;;5070118;28;20670;-69
2020/12/23 05:39:31;;;;;;;54.73;16.20;;;9.00;99.90;;;;;;5071054;28;20207;-69
2020/12/23 05:41:58;;;;;;;70.30;17.30;;;9.00;99.90;;;;;;5071381;28;20730;-69
2020/12/23 05:44:25;;;;;;;59.13;16.37;;;9.00;99.90;;;;;;5070247;28;20213;-70
2020/12/23 05:46:52;;;;;;;55.33;15.40;;;9.00;99.90;;;;;;5068351;28;20230;-69
2020/12/23 05:49:21;;;;;;;38.57;13.63;;;9.00;99.90;;;;;;5072196;28;20288;-69
2020/12/23 05:51:49;;;;;;;38.47;12.57;;;9.00;99.90;;;;;;5051942;28;20197;-69
2020/12/23 05:54:18;;;;;;;32.10;12.73;;;9.10;99.90;;;;;;5049671;28;20211;-69
2020/12/23 05:56:45;;;;;;;35.17;13.33;;;9.10;99.90;;;;;;5049550;28;20680;-69
2020/12/23 05:59:12;;;;;;;31.70;12.60;;;9.10;99.90;;;;;;5051225;28;20327;-69
2020/12/23 06:01:39;;;;;;;28.93;12.60;;;9.10;99.90;;;;;;5028237;28;20294;-69
2020/12/23 06:04:07;;;;;;;25.37;11.40;;;9.10;99.90;;;;;;5029796;28;20222;-69
2020/12/23 06:06:35;;;;;;;24.90;10.73;;;9.10;99.90;;;;;;5044778;28;20221;-69
2020/12/23 06:09:05;;;;;;;24.23;10.80;;;9.10;99.90;;;;;;5049119;28;20671;-69
2020/12/23 06:11:34;;;;;;;21.77;9.97;;;9.10;99.90;;;;;;5049418;28;20740;-69
2020/12/23 06:14:09;;;;;;;33.53;11.00;;;9.10;99.90;;;;;;5048561;28;20582;-69
2020/12/23 06:16:37;;;;;;;44.37;12.57;;;9.10;99.90;;;;;;5064672;28;20212;-69
2020/12/23 06:19:06;;;;;;;30.97;12.87;;;9.10;99.90;;;;;;5069271;28;20275;-69
2020/12/23 06:21:34;;;;;;;24.53;12.67;;;9.10;99.90;;;;;;5069245;28;20221;-68
2020/12/23 06:24:05;;;;;;;25.33;12.30;;;9.10;99.90;;;;;;5028698;28;20378;-68
2020/12/23 06:26:34;;;;;;;28.77;12.93;;;9.10;99.90;;;;;;5029134;28;20233;-68
2020/12/23 06:29:02;;;;;;;24.50;11.90;;;9.10;99.90;;;;;;5027793;28;20242;-69
2020/12/23 06:31:31;;;;;;;22.30;10.90;;;9.10;99.90;;;;;;5028070;28;20724;-69
2020/12/23 06:33:59;;;;;;;18.23;10.33;;;9.10;99.90;;;;;;5049081;28;20208;-69
2020/12/23 06:36:30;;;;;;;18.40;9.90;;;9.20;99.90;;;;;;5028343;28;20279;-69
2020/12/23 06:39:32;;;;;;;18.43;9.93;;;9.20;99.90;;;;;;5027053;28;20226;-69
2020/12/23 06:42:25;;;;;;;16.03;9.53;;;9.20;99.90;;;;;;5026266;28;20212;-70
2020/12/23 06:45:09;;;;;;;22.03;10.77;;;9.20;99.90;;;;;;5031965;28;20223;-69
2020/12/23 06:47:37;;;;;;;18.43;9.93;;;9.20;99.90;;;;;;5035791;28;20778;-69
2020/12/23 06:50:12;;;;;;;18.77;10.13;;;9.20;99.90;;;;;;5041482;28;20204;-70
2020/12/23 06:52:41;;;;;;;16.37;9.63;;;9.20;99.90;;;;;;5044080;28;20198;-70
2020/12/23 06:55:08;;;;;;;15.63;9.13;;;9.20;99.90;;;;;;5039456;28;20223;-69
2020/12/23 06:57:54;;;;;;;24.00;12.43;;;9.20;99.90;;;;;;5042686;28;20208;-68
2020/12/23 07:00:50;;;;;;;20.47;10.87;;;9.20;99.90;;;;;;5037526;28;20202;-69
2020/12/23 07:03:19;;;;;;;24.53;11.40;;;9.20;99.90;;;;;;5048581;28;20203;-69
2020/12/23 07:05:47;;;;;;;18.73;10.50;;;9.20;99.90;;;;;;5048708;28;20222;-69
2020/12/23 07:08:17;;;;;;;23.17;12.10;;;9.20;99.90;;;;;;5079763;28;20220;-69
2020/12/23 07:10:51;;;;;;;23.17;12.43;;;9.20;99.90;;;;;;5093230;28;20194;-68
2020/12/23 07:13:20;;;;;;;31.77;13.83;;;9.20;99.90;;;;;;5052960;28;20198;-69
2020/12/23 07:15:56;;;;;;;31.57;14.37;;;9.20;99.90;;;;;;5048465;28;20253;-68
2020/12/23 07:18:27;;;;;;;35.03;14.93;;;9.20;99.90;;;;;;5055936;28;20253;-68
2020/12/23 07:21:02;;;;;;;36.37;15.73;;;9.20;99.90;;;;;;5055475;28;20207;-68
2020/12/23 07:23:30;;;;;;;32.30;15.77;;;9.30;99.90;;;;;;5055241;28;20211;-68
2020/12/23 07:25:58;;;;;;;35.03;15.57;;;9.30;99.90;;;;;;5058233;28;20628;-68
2020/12/23 07:28:31;;;;;;;29.50;15.50;;;9.30;99.90;;;;;;5054953;28;20303;-68
2020/12/23 07:30:58;;;;;;;30.07;15.47;;;9.40;99.90;;;;;;5047721;28;20205;-68
2020/12/23 07:33:25;;;;;;;29.67;15.23;;;9.50;99.90;;;;;;5065753;28;20216;-68
2020/12/23 07:35:54;;;;;;;28.40;14.53;;;9.50;99.90;;;;;;5088927;28;20227;-68
2020/12/23 07:38:22;;;;;;;25.27;13.80;;;9.50;99.90;;;;;;5088347;28;20218;-69
2020/12/23 07:40:49;;;;;;;30.63;13.43;;;9.60;99.90;;;;;;5088306;28;20227;-68
2020/12/23 07:43:17;;;;;;;41.87;14.30;;;9.60;99.90;;;;;;5089410;28;20214;-68
2020/12/23 07:45:46;;;;;;;38.50;14.23;;;9.60;99.90;;;;;;5110431;28;20199;-68
2020/12/23 07:48:14;;;;;;;44.23;15.63;;;9.60;99.90;;;;;;5112854;28;20260;-68
2020/12/23 07:50:42;;;;;;;40.53;15.53;;;9.70;99.90;;;;;;5108573;28;20208;-68
2020/12/23 07:53:13;;;;;;;48.57;16.57;;;9.70;99.90;;;;;;5110754;28;20214;-68
2020/12/23 07:55:41;;;;;;;47.40;15.97;;;9.70;99.90;;;;;;5088206;28;20203;-68
2020/12/23 07:58:07;;;;;;;35.80;14.87;;;9.70;99.90;;;;;;5093731;28;20297;-68
2020/12/23 08:00:36;;;;;;;29.53;13.23;;;9.80;99.90;;;;;;5089406;28;20737;-69
2020/12/23 08:03:04;;;;;;;27.90;13.50;;;9.80;99.90;;;;;;5095483;28;20737;-69
2020/12/23 08:05:31;;;;;;;30.53;13.57;;;9.80;99.90;;;;;;5091346;28;20248;-69
2020/12/23 08:07:58;;;;;;;20.97;11.80;;;9.80;99.90;;;;;;5094919;28;20632;-69
2020/12/23 08:10:25;;;;;;;26.00;12.03;;;9.80;99.90;;;;;;5047505;28;20228;-69
2020/12/23 08:12:52;;;;;;;26.80;12.73;;;9.80;99.90;;;;;;5047647;28;20217;-69
2020/12/23 08:15:19;;;;;;;27.03;12.70;;;9.80;99.90;;;;;;5045410;28;20294;-69
2020/12/23 08:17:46;;;;;;;25.83;12.20;;;9.90;99.90;;;;;;5053349;28;20220;-68
2020/12/23 08:20:15;;;;;;;23.47;13.47;;;9.90;99.90;;;;;;5034069;28;20225;-69
2020/12/23 08:22:43;;;;;;;28.20;12.83;;;9.90;99.90;;;;;;4996106;28;20227;-69
2020/12/23 08:25:12;;;;;;;24.67;13.57;;;9.90;99.90;;;;;;5011281;28;20364;-69
2020/12/23 08:27:40;;;;;;;21.40;12.47;;;9.90;99.90;;;;;;5007333;28;21268;-69
2020/12/23 08:30:09;;;;;;;24.33;12.63;;;9.90;99.90;;;;;;5009001;28;20333;-69
2020/12/23 08:32:55;;;;;;;21.43;11.77;;;9.90;99.90;;;;;;4986447;28;20208;-69
2020/12/23 08:35:28;;;;;;;20.37;11.37;;;9.90;99.90;;;;;;4991966;28;20211;-69
2020/12/23 08:37:55;;;;;;;24.33;11.90;;;9.90;99.90;;;;;;5011738;28;20268;-70
2020/12/23 08:40:21;;;;;;;24.83;12.13;;;9.90;99.90;;;;;;5011139;28;20302;-69
2020/12/23 08:42:52;;;;;;;25.27;12.37;;;9.90;99.90;;;;;;5011763;28;20210;-69
2020/12/23 08:45:23;;;;;;;35.17;15.63;;;9.90;99.90;;;;;;4989237;28;20234;-70
2020/12/23 08:47:51;;;;;;;37.20;17.33;;;9.90;99.90;;;;;;5010231;28;20597;-69
2020/12/23 08:50:18;;;;;;;36.97;15.90;;;9.90;99.90;;;;;;5011216;28;20207;-69
2020/12/23 08:52:47;;;;;;;37.10;16.10;;;9.90;99.90;;;;;;5022257;28;20260;-68
2020/12/23 08:55:18;;;;;;;31.60;15.27;;;9.90;99.90;;;;;;5027191;28;20573;-69
2020/12/23 08:57:46;;;;;;;27.33;13.73;;;9.90;99.90;;;;;;5030878;28;20203;-69
2020/12/23 09:00:19;;;;;;;34.17;14.60;;;10.00;99.90;;;;;;5047405;28;20269;-69
2020/12/23 09:02:46;;;;;;;40.57;15.87;;;10.00;99.90;;;;;;5045796;28;20319;-68
2020/12/23 09:05:20;;;;;;;50.53;17.17;;;10.00;99.90;;;;;;5050302;28;20325;-69
2020/12/23 09:07:48;;;;;;;69.37;20.73;;;10.10;99.90;;;;;;5050381;28;20717;-69
2020/12/23 09:10:17;;;;;;;51.83;19.60;;;10.10;99.90;;;;;;5035520;28;20199;-69
2020/12/23 09:12:44;;;;;;;44.60;17.53;;;10.10;99.90;;;;;;5035599;28;20211;-69
2020/12/23 09:15:15;;;;;;;28.03;13.63;;;10.10;99.90;;;;;;5036443;28;20234;-69
2020/12/23 09:18:10;;;;;;;26.67;12.07;;;10.20;99.90;;;;;;5079078;28;20201;-69
2020/12/23 09:20:40;;;;;;;20.90;11.70;;;10.20;99.90;;;;;;5057247;28;20255;-69
2020/12/23 09:23:09;;;;;;;19.80;10.90;;;10.20;99.90;;;;;;5082871;28;20210;-69
2020/12/23 09:25:37;;;;;;;16.53;9.57;;;10.20;99.90;;;;;;5080124;28;20211;-70
2020/12/23 09:28:08;;;;;;;17.67;9.93;;;10.20;99.90;;;;;;5043445;28;20256;-69
2020/12/23 09:30:37;;;;;;;26.83;11.70;;;10.30;99.90;;;;;;5033812;28;20205;-69
2020/12/23 09:33:06;;;;;;;23.70;10.87;;;10.30;99.90;;;;;;5021393;28;20304;-69
2020/12/23 09:35:32;;;;;;;24.33;12.57;;;10.30;99.90;;;;;;5030341;28;20218;-68
2020/12/23 09:38:08;;;;;;;23.90;12.37;;;10.30;99.90;;;;;;5015452;28;20404;-69
2020/12/23 09:40:36;;;;;;;20.00;11.10;;;10.30;99.90;;;;;;5033050;28;20214;-69
2020/12/23 09:43:08;;;;;;;19.93;10.73;;;10.30;99.90;;;;;;5065473;28;20270;-68
2020/12/23 09:45:34;;;;;;;16.50;9.93;;;10.30;99.90;;;;;;5056141;28;20207;-69
2020/12/23 09:48:01;;;;;;;23.37;12.23;;;10.30;99.90;;;;;;5026915;28;20262;-68
2020/12/23 09:50:27;;;;;;;24.00;12.50;;;10.40;99.90;;;;;;5026139;28;20198;-69
2020/12/23 09:52:54;;;;;;;20.63;10.73;;;10.40;99.90;;;;;;5029253;28;20215;-69
2020/12/23 09:55:22;;;;;;;20.77;11.50;;;10.50;99.90;;;;;;5030126;28;20321;-69
2020/12/23 09:57:48;;;;;;;19.57;10.17;;;10.60;99.90;;;;;;5019246;28;20214;-69
2020/12/23 10:00:17;;;;;;;17.83;9.40;;;10.60;99.90;;;;;;5044219;28;20215;-69
2020/12/23 10:02:43;;;;;;;21.90;10.53;;;10.70;99.90;;;;;;5075307;28;20213;-69
2020/12/23 10:05:10;;;;;;;16.43;8.93;;;10.70;99.90;;;;;;5059239;28;20327;-70
2020/12/23 10:07:37;;;;;;;18.43;9.43;;;10.70;99.90;;;;;;5055339;28;20770;-69
2020/12/23 10:10:04;;;;;;;16.90;8.93;;;10.70;99.90;;;;;;5032261;28;20240;-69
2020/12/23 10:12:31;;;;;;;16.07;9.63;;;10.70;99.90;;;;;;5027088;28;20220;-69
2020/12/23 10:14:58;;;;;;;18.60;10.17;;;10.70;99.90;;;;;;5029583;28;20203;-69
2020/12/23 10:17:24;;;;;;;24.23;10.93;;;10.70;99.90;;;;;;5065749;28;20198;-69
2020/12/23 10:19:51;;;;;;;23.77;11.03;;;10.70;99.90;;;;;;5024371;28;20204;-69
2020/12/23 10:22:18;;;;;;;25.08;12.73;;;10.70;99.90;;;;;;5024888;28;20437;-69
2020/12/23 10:24:44;;;;;;;19.97;10.80;;;10.70;99.90;;;;;;5023331;28;20199;-69
2020/12/23 10:27:11;;;;;;;18.77;10.17;;;10.70;99.90;;;;;;5026199;28;20256;-68
2020/12/23 10:29:38;;;;;;;18.60;10.53;;;10.80;99.90;;;;;;5027513;28;20212;-69
2020/12/23 10:32:05;;;;;;;19.57;10.37;;;10.80;99.90;;;;;;5002377;28;20257;-68
2020/12/23 10:34:31;;;;;;;18.07;9.77;;;10.80;99.90;;;;;;5020999;28;20206;-68
2020/12/23 10:36:58;;;;;;;26.30;14.37;;;11.40;99.90;;;;;;5029807;28;20216;-69
2020/12/23 10:39:25;;;;;;;26.60;14.03;;;10.90;99.90;;;;;;5033391;28;20206;-68
2020/12/23 10:41:55;;;;;;;31.70;16.10;;;11.00;99.90;;;;;;5031104;28;20273;-68
2020/12/23 10:44:23;;;;;;;40.70;17.83;;;11.00;99.90;;;;;;4982659;28;20207;-68
2020/12/23 10:46:54;;;;;;;39.30;16.87;;;11.00;99.90;;;;;;4983157;28;20341;-68
2020/12/23 10:49:21;;;;;;;26.30;13.10;;;11.00;99.90;;;;;;4984203;28;20240;-68
2020/12/23 10:51:51;;;;;;;22.60;11.30;;;11.00;99.90;;;;;;5018290;28;20218;-68
2020/12/23 10:54:18;;;;;;;15.07;9.20;;;11.00;99.90;;;;;;5023920;28;20207;-69
2020/12/23 10:56:45;;;;;;;15.37;8.33;;;11.00;99.90;;;;;;5039774;28;20208;-68
2020/12/23 10:59:12;;;;;;;13.07;7.83;;;11.00;99.90;;;;;;5044936;28;20209;-68
2020/12/23 11:01:38;;;;;;;14.03;7.90;;;10.90;99.90;;;;;;5048958;28;20213;-68
2020/12/23 11:04:07;;;;;;;16.57;9.00;;;11.00;99.90;;;;;;5023608;28;20243;-69
2020/12/23 11:06:34;;;;;;;13.43;8.70;;;11.00;99.90;;;;;;5020861;28;20245;-68
2020/12/23 11:09:03;;;;;;;14.30;9.73;;;11.00;99.90;;;;;;5024895;28;20244;-68
2020/12/23 11:11:30;;;;;;;19.57;13.00;;;11.00;99.90;;;;;;5023562;28;20198;-68
2020/12/23 11:13:59;;;;;;;21.97;13.83;;;11.00;99.90;;;;;;5024117;28;20213;-68
2020/12/23 11:16:27;;;;;;;22.47;14.57;;;11.00;99.90;;;;;;5066379;28;20274;-68
2020/12/23 11:18:54;;;;;;;22.77;13.63;;;11.00;99.90;;;;;;5066873;28;20288;-69
2020/12/23 11:21:22;;;;;;;20.00;12.97;;;11.00;99.90;;;;;;5071416;28;20225;-69
2020/12/23 11:23:48;;;;;;;21.60;11.83;;;11.00;99.90;;;;;;5068038;28;20716;-69
2020/12/23 11:26:16;;;;;;;19.90;12.93;;;11.10;99.90;;;;;;5045468;28;20233;-68
2020/12/23 11:28:43;;;;;;;19.53;11.57;;;11.10;99.90;;;;;;5044315;28;20567;-69
2020/12/23 11:31:10;;;;;;;15.63;10.30;;;11.20;99.90;;;;;;5001374;28;20236;-68
2020/12/23 11:33:36;;;;;;;17.77;10.83;;;11.20;99.90;;;;;;5012499;28;20686;-69
2020/12/23 11:36:03;;;;;;;37.87;16.77;;;11.20;99.90;;;;;;5017508;28;20298;-69
2020/12/23 11:38:31;;;;;;;46.57;18.60;;;11.20;99.90;;;;;;5012466;28;20216;-69
2020/12/23 11:40:58;;;;;;;50.77;20.43;;;11.20;99.90;;;;;;5010139;28;20208;-68
2020/12/23 11:43:24;;;;;;;43.30;19.23;;;11.20;99.90;;;;;;5011017;28;20198;-69
2020/12/23 11:45:51;;;;;;;40.53;18.07;;;11.20;99.90;;;;;;5019794;28;20280;-69
2020/12/23 11:48:18;;;;;;;34.17;15.90;;;11.20;99.90;;;;;;4987997;28;20240;-69
2020/12/23 11:50:45;;;;;;;33.60;16.40;;;11.30;99.90;;;;;;4986975;28;20233;-68
2020/12/23 11:53:12;;;;;;;39.77;17.87;;;11.30;99.90;;;;;;5001833;28;20276;-68
2020/12/23 11:55:39;;;;;;;42.67;18.67;;;11.30;99.90;;;;;;5002606;28;20211;-69
2020/12/23 11:58:06;;;;;;;30.30;14.70;;;11.30;99.90;;;;;;5006260;28;20195;-69
2020/12/23 12:00:32;;;;;;;26.47;12.67;;;11.40;99.90;;;;;;4996440;28;20196;-69
2020/12/23 12:02:59;;;;;;;30.63;12.73;;;11.40;99.90;;;;;;4991486;28;20227;-69
2020/12/23 12:05:25;;;;;;;32.50;13.27;;;11.40;99.90;;;;;;4998302;28;20675;-69
2020/12/23 12:07:52;;;;;;;36.30;15.00;;;11.40;99.90;;;;;;4996579;28;20744;-69
2020/12/23 12:10:19;;;;;;;35.00;15.10;;;11.40;99.90;;;;;;5046826;28;20632;-69
2020/12/23 12:12:46;;;;;;;34.70;15.00;;;11.40;99.90;;;;;;5022352;28;20202;-69
2020/12/23 12:15:13;;;;;;;37.70;16.00;;;11.40;99.90;;;;;;5007108;28;20214;-69
2020/12/23 12:17:39;;;;;;;45.60;17.67;;;11.40;99.90;;;;;;5066599;28;20207;-70
2020/12/23 12:20:06;;;;;;;36.37;17.03;;;11.40;99.90;;;;;;5063573;28;20263;-70
2020/12/23 12:22:33;;;;;;;33.87;16.00;;;11.30;99.90;;;;;;5037882;28;20409;-70
2020/12/23 12:24:59;;;;;;;27.53;14.87;;;11.30;99.90;;;;;;5036685;28;20303;-71
2020/12/23 12:27:26;;;;;;;31.10;14.63;;;11.30;99.90;;;;;;5030224;28;20221;-70
2020/12/23 12:29:53;;;;;;;30.27;14.27;;;11.20;99.90;;;;;;5025844;28;20300;-70
2020/12/23 12:32:20;;;;;;;30.87;14.97;;;11.20;99.90;;;;;;5028909;28;20842;-70
2020/12/23 12:34:47;;;;;;;28.43;14.20;;;11.10;99.90;;;;;;5027336;28;21313;-70
2020/12/23 12:37:13;;;;;;;30.67;15.33;;;11.10;99.90;;;;;;5032808;28;20288;-71
2020/12/23 12:39:40;;;;;;;33.93;15.77;;;11.10;99.90;;;;;;5030834;28;20528;-71